Hardy, VA (24101)

10:52 AM EDT on August 30, 2014 (GMT -0400)
Long Island Estates | Change Station
CLOSE
Current Station
Personal Weather Station
Location: Moneta, VA
Elevation: 810 ft
Nearby Weather Stations

Elev 810 ft 37.16 °N, 79.70 °W | Updated 11 seconds ago

Overcast
Overcast
75.6 °F
Feels Like 75 °F
N
0.0
Wind Variable Wind from SW
Gusts 0.0 mph

Today
High -- | Low -- °F
--% Chance of Precip.
Yesterday
High -- | Low -- °F
Precip. -- in
6:47 AM 7:50 PM
Waxing Crescent, 22% visible
Pressure 30.22 in
Visibility 6.0 miles
Clouds Mostly Cloudy 1000 ft
Mostly Cloudy 2000 ft
Mostly Cloudy 9000 ft
Heat Index 75 °F
Dew Point 72 °F
Humidity 89%
Rainfall 0.00 in
Snow Depth Not available.
UV 1.6 out of 12
Pollen 9.70 out of 12
Air Quality Not available.
Flu Activity Not available.
METAR KROA 301354Z 14003KT 6SM HZ BKN010 BKN020 BKN090 23/21 A3025 RMK AO2 SLP232 T02330206

More Conditions Fewer Conditions

Pressure 30.22 in
Visibility 6.0 miles
Clouds Mostly Cloudy 1000 ft
Mostly Cloudy 2000 ft
Mostly Cloudy 9000 ft
Heat Index 75 °F
Dew Point 72 °F
Humidity 89%
Rainfall 0.00 in
Snow Depth Not available.
UV 1.6 out of 12
Pollen 9.70 out of 12
Air Quality Not available.
Flu Activity Not available.
METAR KROA 301354Z 14003KT 6SM HZ BKN010 BKN020 BKN090 23/21 A3025 RMK AO2 SLP232 T02330206

More Conditions Fewer Conditions

10-Day Weather Forecast

Almanac

Astronomy

Aug. 30, 2014 Rise Set
Actual Time 6:47 AM EDT 7:50 PM EDT
Civil Twilight 6:21 AM EDT 8:17 PM EDT
Nautical Twilight 5:49 AM EDT 8:48 PM EDT
Astronomical Twilight 5:16 AM EDT 9:21 PM EDT
Moon 11:26 AM EDT 10:31 PM EDT
Length of Visible Light 13h 55m
Length of Day
13h 02m
Tomorrow will be 2m 16s shorter.
Waxing Crescent, 22% of the Moon is Illuminated
Today
Waxing Crescent
Sep 2
First Quarter
Sep 8
Full
Sep 15
Last Quarter
Sep 24
New

Today's Extremes

State Highs State Lows

Community

WunderPhotos

Upload Photos

1,748,528 photos uploaded!

WunderBlogs® & News

Nearby

Snow Depth

Station Depth Elevation
No new snow has been reported.

Earthquake Activity

City Distance Mag. Time & Date
No recent earthquake activity has been reported nearby.
Minimum magnitude displayed is 2.5.

Coastal Water Temperatures

Place Temperature
No Stations Reporting

Nearby Weather Stations